Time;durP1;ratioP1;P1;durP2;ratioP2;P2;SDS_P1;SDS_P2;PMS_P1;PMS_P2;Temp;Humidity;BMP_temperature;BMP_pressure;BME280_temperature;BME280_humidity;BME280_pressure;Samples;Min_cycle;Max_cycle;Signal;HPM_P1;HPM_P2
2023/10/19 00:00:51;;;;;;;24.48;12.43;;;;;;;;;;4965925;28;20079;-73
2023/10/19 00:03:18;;;;;;;20.92;12.77;;;;;;;;;;4966402;28;20094;-73
2023/10/19 00:08:59;;;;;;;23.35;13.07;;;;;;;;;;4967128;28;20058;-73
2023/10/19 00:11:26;;;;;;;21.95;14.52;;;;;;;;;;4965617;28;20050;-73
2023/10/19 00:13:57;;;;;;;24.88;14.30;;;;;;;;;;4969898;28;20055;-73
2023/10/19 00:16:29;;;;;;;21.42;13.80;;;;;;;;;;4966335;28;20153;-74
2023/10/19 00:18:59;;;;;;;23.27;13.38;;;;;;;;;;4966201;28;20054;-73
2023/10/19 00:21:25;;;;;;;24.42;14.68;;;;;;;;;;4963787;28;20100;-73
2023/10/19 00:24:04;;;;;;;22.38;12.93;;;;;;;;;;4967014;28;20050;-73
2023/10/19 00:26:30;;;;;;;21.63;13.15;;;;;;;;;;4950183;28;20050;-74
2023/10/19 00:28:57;;;;;;;21.80;14.63;;;;;;;;;;4966353;28;20113;-73
2023/10/19 00:31:23;;;;;;;26.05;13.57;;;;;;;;;;4966437;28;20085;-73
2023/10/19 00:33:54;;;;;;;24.15;13.35;;;;;;;;;;4961733;28;20057;-72
2023/10/19 00:36:20;;;;;;;22.83;13.98;;;;;;;;;;4967216;28;20476;-73
2023/10/19 00:41:29;;;;;;;28.80;15.75;;;;;;;;;;4960719;28;20058;-73
2023/10/19 00:44:11;;;;;;;24.95;14.55;;;;;;;;;;4963258;28;20624;-73
2023/10/19 00:46:43;;;;;;;22.88;13.73;;;;;;;;;;4959252;28;20515;-73
2023/10/19 00:49:12;;;;;;;27.55;15.98;;;;;;;;;;4966745;28;20081;-73
2023/10/19 00:51:53;;;;;;;22.08;13.07;;;;;;;;;;4961362;28;20058;-72
2023/10/19 00:54:26;;;;;;;25.10;15.32;;;;;;;;;;4968119;28;20046;-73
2023/10/19 00:56:56;;;;;;;25.23;15.68;;;;;;;;;;4965620;28;20484;-73
2023/10/19 00:59:23;;;;;;;26.52;16.08;;;;;;;;;;4966761;28;20802;-73
2023/10/19 01:01:54;;;;;;;25.98;16.63;;;;;;;;;;4959147;28;20069;-73
2023/10/19 01:04:22;;;;;;;35.78;17.73;;;;;;;;;;4963576;28;20575;-71
2023/10/19 01:07:05;;;;;;;28.30;15.73;;;;;;;;;;4966483;28;20078;-72
2023/10/19 01:09:38;;;;;;;21.02;12.57;;;;;;;;;;4964648;28;20042;-73
2023/10/19 01:15:06;;;;;;;25.27;15.18;;;;;;;;;;4958256;28;20724;-73
2023/10/19 01:17:34;;;;;;;24.50;13.82;;;;;;;;;;4965693;28;20046;-73
2023/10/19 01:20:01;;;;;;;26.80;16.75;;;;;;;;;;4967526;28;20043;-73
2023/10/19 01:22:27;;;;;;;23.50;16.33;;;;;;;;;;4944594;29;20711;-73
2023/10/19 01:24:55;;;;;;;26.63;16.67;;;;;;;;;;4960986;28;20050;-72
2023/10/19 01:27:22;;;;;;;27.17;15.38;;;;;;;;;;4966653;28;20053;-71
2023/10/19 01:29:51;;;;;;;24.88;15.18;;;;;;;;;;4965973;28;20059;-73
2023/10/19 01:32:17;;;;;;;22.98;13.13;;;;;;;;;;4966315;28;20122;-73
2023/10/19 01:34:44;;;;;;;27.13;17.00;;;;;;;;;;4965541;28;20057;-72
2023/10/19 01:37:12;;;;;;;24.60;15.38;;;;;;;;;;4966385;28;20118;-73
2023/10/19 01:39:39;;;;;;;29.83;17.42;;;;;;;;;;4943914;28;20054;-73
2023/10/19 01:42:07;;;;;;;23.83;13.25;;;;;;;;;;4966197;28;20074;-73
2023/10/19 01:44:35;;;;;;;23.52;14.57;;;;;;;;;;4965135;28;20054;-73
2023/10/19 01:47:02;;;;;;;23.88;12.73;;;;;;;;;;4963860;28;20061;-73
2023/10/19 01:49:28;;;;;;;22.40;13.18;;;;;;;;;;4964698;28;20035;-73
2023/10/19 01:51:55;;;;;;;24.30;15.20;;;;;;;;;;4967997;28;20043;-73
2023/10/19 01:54:23;;;;;;;21.50;12.80;;;;;;;;;;4966705;28;20053;-73
2023/10/19 01:56:56;;;;;;;19.85;12.90;;;;;;;;;;4964552;28;20061;-72
2023/10/19 01:59:27;;;;;;;22.23;13.88;;;;;;;;;;4966740;28;20081;-73
2023/10/19 02:01:54;;;;;;;21.35;12.65;;;;;;;;;;4965264;28;20096;-73
2023/10/19 02:04:21;;;;;;;20.17;12.88;;;;;;;;;;4960624;28;20066;-71
2023/10/19 02:06:48;;;;;;;18.92;11.88;;;;;;;;;;4965198;28;20076;-73
2023/10/19 02:09:21;;;;;;;20.52;12.73;;;;;;;;;;4965876;28;20066;-73
2023/10/19 02:15:10;;;;;;;19.17;11.40;;;;;;;;;;4963027;28;20038;-72
2023/10/19 02:17:37;;;;;;;18.67;11.90;;;;;;;;;;4965678;28;20405;-72
2023/10/19 02:20:17;;;;;;;17.48;11.75;;;;;;;;;;4956438;28;20126;-73
2023/10/19 02:22:43;;;;;;;15.82;11.15;;;;;;;;;;4959314;28;20081;-73
2023/10/19 02:25:11;;;;;;;18.75;11.70;;;;;;;;;;4968017;28;20493;-73
2023/10/19 02:27:37;;;;;;;11.20;8.13;;;;;;;;;;4964838;28;20058;-72
2023/10/19 02:30:05;;;;;;;15.15;10.02;;;;;;;;;;4965437;28;20046;-73
2023/10/19 02:32:33;;;;;;;16.30;8.63;;;;;;;;;;4964403;28;20504;-73
2023/10/19 02:34:59;;;;;;;18.27;11.43;;;;;;;;;;4965462;28;20078;-73
2023/10/19 02:37:25;;;;;;;15.02;9.77;;;;;;;;;;4964511;28;20053;-73
2023/10/19 02:39:51;;;;;;;12.82;8.68;;;;;;;;;;4965142;28;20051;-72
2023/10/19 02:42:18;;;;;;;15.10;9.20;;;;;;;;;;4961745;28;20055;-73
2023/10/19 02:44:44;;;;;;;18.33;11.15;;;;;;;;;;4963475;28;20055;-73
2023/10/19 02:47:10;;;;;;;16.48;10.35;;;;;;;;;;4964749;28;20043;-73
2023/10/19 02:49:39;;;;;;;18.77;10.85;;;;;;;;;;4966459;28;20838;-73
2023/10/19 02:52:05;;;;;;;16.42;10.25;;;;;;;;;;4964865;28;20049;-73
2023/10/19 02:54:35;;;;;;;16.33;10.27;;;;;;;;;;4946125;28;20043;-72
2023/10/19 02:57:02;;;;;;;15.15;9.15;;;;;;;;;;4963364;28;20053;-73
2023/10/19 02:59:29;;;;;;;15.70;10.85;;;;;;;;;;4964328;28;20519;-73
2023/10/19 03:04:37;;;;;;;15.65;10.30;;;;;;;;;;4963482;28;20055;-72
2023/10/19 03:07:04;;;;;;;17.42;10.73;;;;;;;;;;4961281;28;20042;-72
2023/10/19 03:09:30;;;;;;;14.02;9.02;;;;;;;;;;4964942;28;20093;-73
2023/10/19 03:12:00;;;;;;;18.00;10.45;;;;;;;;;;4963734;28;20058;-73
2023/10/19 03:14:26;;;;;;;15.35;9.15;;;;;;;;;;4961337;28;20043;-72
2023/10/19 03:16:56;;;;;;;14.77;9.93;;;9.20;99.90;;;;;;4962074;28;20101;-73
2023/10/19 03:22:00;;;;;;;15.63;9.55;;;;;;;;;;5968026;23;20050;-72
2023/10/19 03:24:35;;;;;;;14.77;10.02;;;;;;;;;;4978126;28;20054;-73
2023/10/19 03:27:08;;;;;;;15.10;8.75;;;;;;;;;;4960102;28;20042;-73
2023/10/19 03:29:38;;;;;;;16.23;10.32;;;9.30;99.90;;;;;;4965984;28;20043;-73
2023/10/19 03:32:06;;;;;;;16.73;10.80;;;8.90;99.90;;;;;;4963737;28;20055;-73
2023/10/19 03:34:32;;;;;;;15.75;10.88;;;;;;;;;;4960435;28;20043;-73
2023/10/19 03:37:05;;;;;;;15.88;10.95;;;;;;;;;;4956476;28;20054;-73
2023/10/19 03:39:33;;;;;;;17.20;10.98;;;;;;;;;;4960331;28;20050;-73
2023/10/19 03:41:59;;;;;;;18.17;10.98;;;;;;;;;;4959822;28;20055;-72
2023/10/19 03:47:49;;;;;;;19.05;11.27;;;;;;;;;;4961364;28;20045;-72
2023/10/19 03:50:20;;;;;;;15.07;9.70;;;;;;;;;;4966211;28;20077;-73
2023/10/19 03:52:46;;;;;;;18.55;12.32;;;;;;;;;;4963450;28;20130;-73
2023/10/19 03:55:14;;;;;;;15.60;10.52;;;;;;;;;;4964759;28;20548;-72
2023/10/19 03:57:41;;;;;;;13.88;8.95;;;;;;;;;;4965185;28;20082;-73
2023/10/19 04:00:16;;;;;;;17.80;10.95;;;;;;;;;;4963536;28;20046;-73
2023/10/19 04:02:42;;;;;;;17.30;11.23;;;;;;;;;;4957456;28;20378;-73
2023/10/19 04:05:14;;;;;;;20.67;12.18;;;9.40;99.90;;;;;;4964487;28;20076;-71
2023/10/19 04:07:41;;;;;;;16.77;11.07;;;;;;;;;;4949751;28;20047;-73
2023/10/19 04:12:38;;;;;;;15.45;10.45;;;;;;;;;;4964732;28;20059;-72
2023/10/19 04:15:15;;;;;;;15.30;10.02;;;;;;;;;;4963974;28;20637;-73
2023/10/19 04:17:48;;;;;;;13.70;10.32;;;;;;;;;;4966330;28;20057;-73
2023/10/19 04:22:53;;;;;;;15.57;10.30;;;9.60;99.90;;;;;;4961200;28;20145;-73
2023/10/19 04:25:20;;;;;;;15.52;9.40;;;;;;;;;;4964561;28;20054;-72
2023/10/19 04:27:46;;;;;;;16.60;10.50;;;;;;;;;;4965385;28;20047;-72
2023/10/19 04:30:16;;;;;;;15.98;10.73;;;;;;;;;;4953904;28;20047;-72
2023/10/19 04:36:08;;;;;;;19.17;10.80;;;;;;;;;;4960046;28;20042;-73
2023/10/19 04:38:34;;;;;;;19.67;12.10;;;;;;;;;;4963920;28;20054;-72
2023/10/19 04:41:07;;;;;;;17.08;11.60;;;;;;;;;;4967288;28;20047;-72
2023/10/19 04:43:35;;;;;;;18.80;11.65;;;;;;;;;;4952755;28;20062;-73
2023/10/19 04:46:01;;;;;;;18.67;11.30;;;9.40;99.90;;;;;;4970830;28;20050;-72
2023/10/19 04:48:27;;;;;;;17.35;11.50;;;;;;;;;;4963954;28;20058;-73
2023/10/19 04:50:53;;;;;;;19.20;11.18;;;;;;;;;;4966989;28;20058;-72
2023/10/19 04:53:19;;;;;;;23.63;13.02;;;;;;;;;;4966636;28;20877;-73
2023/10/19 04:55:45;;;;;;;21.58;13.15;;;9.50;99.90;;;;;;4969050;28;20051;-72
2023/10/19 04:58:11;;;;;;;20.45;12.80;;;;;;;;;;4965589;28;20050;-73
2023/10/19 05:00:37;;;;;;;16.38;9.90;;;;;;;;;;4967900;28;20046;-72
2023/10/19 05:03:03;;;;;;;16.38;10.43;;;9.70;99.90;;;;;;4950959;28;20515;-73
2023/10/19 05:05:29;;;;;;;20.60;12.82;;;;;;;;;;4965203;28;20126;-71
2023/10/19 05:07:55;;;;;;;22.38;13.60;;;;;;;;;;4966468;28;20059;-72
2023/10/19 05:10:21;;;;;;;23.65;14.80;;;9.50;99.90;;;;;;4966967;28;20051;-72
2023/10/19 05:12:46;;;;;;;21.25;13.57;;;9.40;99.90;;;;;;4965253;28;20058;-72
2023/10/19 05:15:12;;;;;;;22.48;13.73;;;;;;;;;;4967389;28;20077;-73
2023/10/19 05:17:38;;;;;;;24.63;13.77;;;;;;;;;;4967925;28;20119;-73
2023/10/19 05:20:05;;;;;;;19.95;12.80;;;;;;;;;;4967386;28;20177;-73
2023/10/19 05:22:32;;;;;;;20.80;12.20;;;;;;;;;;4949681;28;20062;-72
2023/10/19 05:24:58;;;;;;;23.45;14.38;;;;;;;;;;4967374;28;20457;-73
2023/10/19 05:27:25;;;;;;;22.88;14.00;;;;;;;;;;4966801;28;20203;-72
2023/10/19 05:29:51;;;;;;;22.58;13.95;;;;;;;;;;4968369;28;20105;-73
2023/10/19 05:32:16;;;;;;;17.67;12.05;;;9.60;99.90;;;;;;4963202;28;20481;-73
2023/10/19 05:34:43;;;;;;;22.55;14.60;;;;;;;;;;4968012;28;20047;-73
2023/10/19 05:37:08;;;;;;;26.10;15.05;;;9.80;99.90;;;;;;4965911;28;20042;-72
2023/10/19 05:39:36;;;;;;;19.05;12.45;;;;;;;;;;4967898;28;20757;-71
2023/10/19 05:42:02;;;;;;;25.73;15.75;;;;;;;;;;4962126;28;20046;-72
2023/10/19 05:44:30;;;;;;;22.48;14.48;;;9.60;99.90;;;;;;4968027;28;20050;-72
2023/10/19 05:46:56;;;;;;;27.75;15.43;;;;;;;;;;4967475;28;20129;-73
2023/10/19 05:49:23;;;;;;;25.13;15.18;;;;;;;;;;4967347;28;20042;-72
2023/10/19 05:51:50;;;;;;;22.73;13.65;;;;;;;;;;4963830;28;20089;-73
2023/10/19 05:54:16;;;;;;;20.95;14.05;;;;;;;;;;4966096;28;20075;-72
2023/10/19 05:56:42;;;;;;;21.95;14.40;;;;;;;;;;4962102;28;20059;-73
2023/10/19 05:59:10;;;;;;;18.00;11.20;;;;;;;;;;4967856;28;20047;-73
2023/10/19 06:01:37;;;;;;;22.05;13.55;;;;;;;;;;4966016;28;20089;-72
2023/10/19 06:04:03;;;;;;;22.50;14.20;;;;;;;;;;4965374;28;20054;-73
2023/10/19 06:06:28;;;;;;;22.88;14.73;;;9.90;99.90;;;;;;4965161;28;20043;-73
2023/10/19 06:08:55;;;;;;;22.83;14.50;;;;;;;;;;4960223;28;20066;-72
2023/10/19 06:11:22;;;;;;;23.83;15.27;;;;;;;;;;4962158;28;20047;-72
2023/10/19 06:13:48;;;;;;;22.27;14.10;;;;;;;;;;4968109;28;20051;-73
2023/10/19 06:16:14;;;;;;;24.85;13.52;;;;;;;;;;4966517;28;20039;-73
2023/10/19 06:18:40;;;;;;;23.95;14.88;;;;;;;;;;4962311;28;20070;-73
2023/10/19 06:21:06;;;;;;;22.80;14.25;;;;;;;;;;4978918;28;20053;-72
2023/10/19 06:23:33;;;;;;;24.38;15.02;;;;;;;;;;4961104;28;20069;-72
2023/10/19 06:26:03;;;;;;;25.95;15.77;;;;;;;;;;4965156;28;20063;-73
2023/10/19 06:28:33;;;;;;;20.42;13.20;;;;;;;;;;4964069;28;20050;-73
2023/10/19 06:30:59;;;;;;;25.98;16.58;;;;;;;;;;4943330;28;20050;-72
2023/10/19 06:33:25;;;;;;;26.27;16.25;;;;;;;;;;4958642;28;20039;-72
2023/10/19 06:35:51;;;;;;;26.52;15.25;;;;;;;;;;4966642;28;20170;-72
2023/10/19 06:38:17;;;;;;;25.88;15.50;;;;;;;;;;4968192;28;20129;-72
2023/10/19 06:40:43;;;;;;;27.98;15.80;;;;;;;;;;4961968;28;20047;-72
2023/10/19 06:43:09;;;;;;;23.58;13.32;;;;;;;;;;4960439;28;20051;-71
2023/10/19 06:45:35;;;;;;;22.15;13.02;;;;;;;;;;4940745;28;20054;-72
2023/10/19 06:48:01;;;;;;;19.88;13.63;;;;;;;;;;4965668;28;20054;-73
2023/10/19 06:50:27;;;;;;;19.58;12.55;;;;;;;;;;4946663;28;20042;-73
2023/10/19 06:52:54;;;;;;;24.38;14.95;;;;;;;;;;4964503;28;20047;-71
2023/10/19 06:55:20;;;;;;;24.55;15.20;;;;;;;;;;4964317;28;20100;-71
2023/10/19 06:57:50;;;;;;;24.45;15.68;;;;;;;;;;4960328;28;20622;-71
2023/10/19 07:00:20;;;;;;;25.38;16.05;;;;;;;;;;4964991;28;20757;-72
2023/10/19 07:02:56;;;;;;;27.98;16.13;;;;;;;;;;4948793;28;20062;-71
2023/10/19 07:05:24;;;;;;;30.20;16.83;;;;;;;;;;4964926;28;20096;-70
2023/10/19 07:07:51;;;;;;;26.20;15.45;;;;;;;;;;4962556;28;20057;-70
2023/10/19 07:10:18;;;;;;;22.67;14.10;;;;;;;;;;4958401;28;20055;-69
2023/10/19 07:12:46;;;;;;;26.58;16.83;;;;;;;;;;4964009;28;20051;-71
2023/10/19 07:15:18;;;;;;;27.98;17.17;;;;;;;;;;4965212;28;20053;-71
2023/10/19 07:17:45;;;;;;;43.05;18.42;;;;;;;;;;4962829;28;20420;-70
2023/10/19 07:22:54;;;;;;;27.38;16.80;;;;;;;;;;4963879;28;20157;-70
2023/10/19 07:25:21;;;;;;;24.02;15.43;;;10.40;99.90;;;;;;4949443;28;20058;-70
2023/10/19 07:27:50;;;;;;;27.98;18.13;;;10.30;99.90;;;;;;4964434;28;20129;-70
2023/10/19 07:30:26;;;;;;;30.05;17.75;;;;;;;;;;4961195;28;20085;-70
2023/10/19 07:32:58;;;;;;;30.17;16.83;;;;;;;;;;4948151;28;20574;-70
2023/10/19 07:35:27;;;;;;;30.60;18.70;;;;;;;;;;4962500;28;20074;-70
2023/10/19 07:37:54;;;;;;;30.42;18.23;;;;;;;;;;4964252;28;20481;-70
2023/10/19 07:40:20;;;;;;;27.17;16.05;;;;;;;;;;4945002;28;20039;-70
2023/10/19 07:42:46;;;;;;;28.63;17.73;;;;;;;;;;4947941;28;20126;-70
2023/10/19 07:45:13;;;;;;;28.55;17.38;;;;;;;;;;4958763;28;20126;-71
2023/10/19 07:47:42;;;;;;;30.02;16.30;;;;;;;;;;4965128;28;20129;-70
2023/10/19 07:50:15;;;;;;;28.98;18.05;;;;;;;;;;4964873;28;20039;-70
2023/10/19 07:52:43;;;;;;;30.45;17.25;;;;;;;;;;4965031;28;20038;-70
2023/10/19 07:55:09;;;;;;;32.38;17.73;;;;;;;;;;4962278;28;20043;-70
2023/10/19 07:57:35;;;;;;;29.98;18.27;;;;;;;;;;4964820;28;20421;-70
2023/10/19 08:00:01;;;;;;;31.02;17.35;;;;;;;;;;4966016;28;20416;-71
2023/10/19 08:02:28;;;;;;;29.27;16.52;;;;;;;;;;4966078;28;20047;-70
2023/10/19 08:04:55;;;;;;;26.98;15.90;;;10.50;99.90;;;;;;4961297;28;20050;-71
2023/10/19 08:07:21;;;;;;;27.88;16.55;;;;;;;;;;4945940;28;20046;-71
2023/10/19 08:09:48;;;;;;;29.95;17.55;;;;;;;;;;4963716;28;20046;-71
2023/10/19 08:12:14;;;;;;;32.35;19.30;;;;;;;;;;4964191;28;20054;-72
2023/10/19 08:14:40;;;;;;;31.90;18.92;;;;;;;;;;4964028;28;20390;-72
2023/10/19 08:17:08;;;;;;;29.98;17.70;;;;;;;;;;4967452;28;20049;-72
2023/10/19 08:19:35;;;;;;;33.45;18.75;;;;;;;;;;4968033;28;20046;-72
2023/10/19 08:22:02;;;;;;;28.98;17.52;;;;;;;;;;4963678;28;20536;-72
2023/10/19 08:24:30;;;;;;;27.05;16.15;;;;;;;;;;4966804;28;20130;-71
2023/10/19 08:26:56;;;;;;;28.58;16.75;;;;;;;;;;4966140;28;20070;-71
2023/10/19 08:29:23;;;;;;;29.80;16.92;;;;;;;;;;4968245;28;20129;-71
2023/10/19 08:31:50;;;;;;;25.85;15.57;;;;;;;;;;4962510;28;20047;-71
2023/10/19 08:34:17;;;;;;;28.50;16.98;;;;;;;;;;4967633;28;20093;-71
2023/10/19 08:36:43;;;;;;;29.73;16.58;;;;;;;;;;4970060;28;20055;-71
2023/10/19 08:39:12;;;;;;;33.25;19.10;;;10.80;99.90;;;;;;4965741;28;20050;-71
2023/10/19 08:41:40;;;;;;;33.83;18.80;;;10.70;99.90;;;;;;4963497;28;20482;-71
2023/10/19 08:44:15;;;;;;;34.25;18.23;;;;;;;;;;4966373;28;20386;-71
2023/10/19 08:46:45;;;;;;;29.63;16.35;;;;;;;;;;4962717;28;20524;-71
2023/10/19 08:49:16;;;;;;;26.92;17.45;;;;;;;;;;4953769;28;20042;-72
2023/10/19 08:51:46;;;;;;;33.92;18.67;;;;;;;;;;4958428;28;20049;-73
2023/10/19 08:54:12;;;;;;;35.60;18.50;;;11.00;99.90;;;;;;4961159;28;20125;-72
2023/10/19 08:56:41;;;;;;;32.92;18.80;;;;;;;;;;4961210;28;20497;-71
2023/10/19 08:59:07;;;;;;;36.83;21.20;;;;;;;;;;4965719;28;20047;-71
2023/10/19 09:01:35;;;;;;;37.30;20.63;;;;;;;;;;4959377;28;20039;-71
2023/10/19 09:04:01;;;;;;;39.67;21.75;;;;;;;;;;4960754;28;20858;-72
2023/10/19 09:06:30;;;;;;;38.00;21.27;;;;;;;;;;4967360;28;20097;-71
2023/10/19 09:08:57;;;;;;;41.03;22.67;;;;;;;;;;4967538;28;20061;-71
2023/10/19 09:11:24;;;;;;;38.17;21.42;;;;;;;;;;4964571;28;20082;-71
2023/10/19 09:13:54;;;;;;;33.67;20.23;;;;;;;;;;4965681;28;20078;-71
2023/10/19 09:16:21;;;;;;;39.58;23.02;;;;;;;;;;4967653;28;20070;-71
2023/10/19 09:18:48;;;;;;;34.20;19.80;;;;;;;;;;4962049;28;20069;-71
2023/10/19 09:21:28;;;;;;;37.58;20.33;;;;;;;;;;4965962;28;20042;-71
2023/10/19 09:23:55;;;;;;;34.45;20.02;;;;;;;;;;4964230;28;20748;-71
2023/10/19 09:26:22;;;;;;;42.88;21.77;;;;;;;;;;4961071;28;20069;-72
2023/10/19 09:28:50;;;;;;;40.58;21.88;;;;;;;;;;4963809;28;20141;-71
2023/10/19 09:31:17;;;;;;;38.78;20.85;;;;;;;;;;4964757;28;20078;-71
2023/10/19 09:33:44;;;;;;;37.03;20.30;;;;;;;;;;4966766;28;20050;-72
2023/10/19 09:36:13;;;;;;;40.53;23.13;;;;;;;;;;4950502;28;20050;-72
2023/10/19 09:38:50;;;;;;;40.60;21.80;;;;;;;;;;4967464;28;20047;-72
2023/10/19 09:41:22;;;;;;;36.83;19.92;;;;;;;;;;4945027;28;20042;-72
2023/10/19 09:43:49;;;;;;;39.92;21.73;;;11.70;99.90;;;;;;4964813;28;20047;-72
2023/10/19 09:46:21;;;;;;;34.60;20.13;;;;;;;;;;4963961;28;20519;-73
2023/10/19 09:48:51;;;;;;;46.20;22.88;;;;;;;;;;4965153;28;20563;-72
2023/10/19 09:51:19;;;;;;;38.88;21.38;;;;;;;;;;4959109;28;20086;-71
2023/10/19 09:53:47;;;;;;;40.90;20.20;;;;;;;;;;4963009;28;20596;-72
2023/10/19 09:56:19;;;;;;;40.47;21.40;;;11.70;99.90;;;;;;4967005;28;20046;-72
2023/10/19 09:59:08;;;;;;;45.20;21.90;;;;;;;;;;4943802;28;20054;-72
2023/10/19 10:02:13;;;;;;;41.85;21.00;;;;;;;;;;4959201;28;20118;-72
2023/10/19 10:04:40;;;;;;;37.17;20.85;;;;;;;;;;4951383;28;20672;-73
2023/10/19 10:07:09;;;;;;;37.13;20.15;;;;;;;;;;4941842;28;20512;-73
2023/10/19 10:09:42;;;;;;;38.92;20.30;;;;;;;;;;4944729;28;20047;-72
2023/10/19 10:12:21;;;;;;;36.30;20.23;;;11.40;99.90;;;;;;4944657;28;20051;-71
2023/10/19 10:15:05;;;;;;;36.00;19.70;;;11.40;99.90;;;;;;4965363;28;20046;-71
2023/10/19 10:17:34;;;;;;;38.13;17.85;;;;;;;;;;4957903;28;20039;-71
2023/10/19 10:20:29;;;;;;;45.47;20.25;;;;;;;;;;4963214;28;20043;-70
2023/10/19 10:23:34;;;;;;;39.35;19.95;;;;;;;;;;4940604;28;20075;-71
2023/10/19 10:26:00;;;;;;;39.17;21.70;;;;;;;;;;4868570;29;20534;-71
2023/10/19 10:28:28;;;;;;;37.65;19.35;;;;;;;;;;4860475;29;20583;-71
2023/10/19 10:31:09;;;;;;;39.17;19.83;;;;;;;;;;4908614;28;20079;-70
2023/10/19 10:33:54;;;;;;;42.03;21.48;;;12.00;99.90;;;;;;4962834;28;20137;-71
2023/10/19 10:36:20;;;;;;;33.85;19.33;;;;;;;;;;4980414;28;20058;-71
2023/10/19 10:38:48;;;;;;;35.40;20.13;;;11.80;99.90;;;;;;4966488;28;20051;-71
2023/10/19 10:41:20;;;;;;;40.55;21.45;;;;;;;;;;4962412;28;20039;-71
2023/10/19 10:43:52;;;;;;;41.10;20.08;;;;;;;;;;4962023;28;20043;-71
2023/10/19 10:46:18;;;;;;;37.50;21.15;;;;;;;;;;4952901;28;20082;-71
2023/10/19 10:48:44;;;;;;;38.90;20.30;;;;;;;;;;4961196;28;20062;-71
2023/10/19 10:51:23;;;;;;;34.92;21.65;;;11.90;99.90;;;;;;4963765;28;20043;-70
2023/10/19 10:53:50;;;;;;;39.15;21.42;;;;;;;;;;4968519;28;20509;-70
2023/10/19 10:56:17;;;;;;;40.00;22.00;;;;;;;;;;4961627;28;20074;-70
2023/10/19 10:58:43;;;;;;;44.80;22.90;;;;;;;;;;4949348;28;20497;-70
2023/10/19 11:01:10;;;;;;;33.05;19.00;;;;;;;;;;4965074;28;20046;-71
2023/10/19 11:03:36;;;;;;;35.63;21.33;;;;;;;;;;4963729;28;20637;-71
2023/10/19 11:06:09;;;;;;;38.10;21.73;;;12.20;99.90;;;;;;4947325;28;20590;-71
2023/10/19 11:08:36;;;;;;;34.63;18.30;;;12.30;99.90;;;;;;4959949;28;20481;-71
2023/10/19 11:11:05;;;;;;;36.10;20.75;;;11.90;99.90;;;;;;4958600;28;20051;-71
2023/10/19 11:13:33;;;;;;;33.88;19.75;;;;;;;;;;4960501;28;20079;-70
2023/10/19 11:16:01;;;;;;;35.65;20.95;;;;;;;;;;4967058;28;20043;-71
2023/10/19 11:18:37;;;;;;;35.65;21.17;;;12.30;99.90;;;;;;4962541;28;20043;-71
2023/10/19 11:21:07;;;;;;;34.63;19.88;;;;;;;;;;4960829;28;20043;-72
2023/10/19 11:24:33;;;;;;;38.22;20.13;;;;;;;;;;4948611;28;20066;-71
2023/10/19 11:27:12;;;;;;;39.08;20.98;;;;;;;;;;4963642;28;20816;-73
2023/10/19 11:30:07;;;;;;;38.72;19.92;;;12.30;99.90;;;;;;4941748;28;20097;-75
2023/10/19 11:32:38;;;;;;;37.73;22.17;;;;;;;;;;4939854;28;20081;-72
2023/10/19 11:35:12;;;;;;;40.53;21.20;;;;;;;;;;4964745;28;20046;-74
2023/10/19 11:37:47;;;;;;;43.75;23.00;;;;;;;;;;4964531;28;20758;-73
2023/10/19 11:40:13;;;;;;;41.63;23.33;;;;;;;;;;4963172;28;20085;-72
2023/10/19 11:42:40;;;;;;;40.88;22.65;;;;;;;;;;4963381;28;20086;-73
2023/10/19 11:45:06;;;;;;;39.05;20.67;;;;;;;;;;4956513;28;20047;-73
2023/10/19 11:47:32;;;;;;;38.70;21.35;;;;;;;;;;4962951;28;20042;-74
2023/10/19 11:49:58;;;;;;;34.08;19.05;;;;;;;;;;4966538;28;20051;-72
2023/10/19 11:52:24;;;;;;;38.63;22.10;;;;;;;;;;4959689;28;20082;-73
2023/10/19 11:54:50;;;;;;;40.08;22.75;;;;;;;;;;4967138;28;20137;-73
2023/10/19 11:57:16;;;;;;;45.90;22.25;;;;;;;;;;4965260;28;20047;-74
2023/10/19 11:59:42;;;;;;;34.40;20.35;;;;;;;;;;4962709;28;20400;-74
2023/10/19 12:02:09;;;;;;;41.90;20.50;;;;;;;;;;4966757;28;20099;-74
2023/10/19 12:04:36;;;;;;;40.15;21.60;;;;;;;;;;4967277;28;20043;-74
2023/10/19 12:07:03;;;;;;;37.63;21.05;;;;;;;;;;4961778;28;20093;-73
2023/10/19 12:09:29;;;;;;;37.30;22.55;;;;;;;;;;4964471;28;20047;-73
2023/10/19 12:11:56;;;;;;;37.20;21.10;;;;;;;;;;4960222;28;20051;-73
2023/10/19 12:14:22;;;;;;;40.75;21.90;;;;;;;;;;4964548;28;20053;-73
2023/10/19 12:16:48;;;;;;;37.35;21.95;;;;;;;;;;4970569;28;20058;-73
2023/10/19 12:19:15;;;;;;;31.77;19.58;;;12.90;99.90;;;;;;4963367;28;20049;-73
2023/10/19 12:21:41;;;;;;;37.75;20.95;;;;;;;;;;4967599;28;20390;-73
2023/10/19 12:24:08;;;;;;;34.90;21.52;;;;;;;;;;4950827;28;20086;-74
2023/10/19 12:26:34;;;;;;;40.75;22.75;;;13.00;99.90;;;;;;4965506;28;20042;-74
2023/10/19 12:29:00;;;;;;;37.47;20.55;;;;;;;;;;4965483;28;20039;-73
2023/10/19 12:31:26;;;;;;;38.22;18.83;;;;;;;;;;4959332;28;20382;-73
2023/10/19 12:33:53;;;;;;;39.45;23.40;;;;;;;;;;4961123;28;20142;-73
2023/10/19 12:38:54;;;;;;;33.00;19.20;;;;;;;;;;4968124;28;20774;-74
2023/10/19 12:41:20;;;;;;;36.25;20.33;;;;;;;;;;4960660;28;20071;-73
2023/10/19 12:43:47;;;;;;;39.10;22.27;;;;;;;;;;4964608;28;20059;-74
2023/10/19 12:46:14;;;;;;;39.25;20.80;;;12.70;99.90;;;;;;4963986;28;20608;-73
2023/10/19 12:48:46;;;;;;;36.33;20.42;;;;;;;;;;4960987;28;20121;-73
2023/10/19 12:51:13;;;;;;;37.42;22.05;;;;;;;;;;4959877;28;20062;-73
2023/10/19 12:53:39;;;;;;;29.48;17.92;;;;;;;;;;4965659;28;20057;-71
2023/10/19 12:56:07;;;;;;;27.38;15.02;;;;;;;;;;4961693;28;20046;-72
2023/10/19 12:58:34;;;;;;;34.10;18.05;;;;;;;;;;4964227;28;20130;-71
2023/10/19 13:01:00;;;;;;;33.92;20.13;;;;;;;;;;4958824;28;20054;-71
2023/10/19 13:03:32;;;;;;;33.75;20.83;;;;;;;;;;4962969;28;20042;-71
2023/10/19 13:05:58;;;;;;;33.90;19.30;;;;;;;;;;4983191;28;20054;-71
2023/10/19 13:08:27;;;;;;;32.25;16.88;;;;;;;;;;4947606;28;20051;-72
2023/10/19 13:10:54;;;;;;;27.70;15.73;;;;;;;;;;4968640;28;20062;-71
2023/10/19 13:13:23;;;;;;;34.03;16.13;;;;;;;;;;4965201;28;20543;-74
2023/10/19 13:15:49;;;;;;;33.75;19.45;;;;;;;;;;4951372;28;20050;-73
2023/10/19 13:18:27;;;;;;;34.80;19.85;;;;;;;;;;4944068;28;20803;-72
2023/10/19 13:20:54;;;;;;;31.50;18.63;;;;;;;;;;4962974;28;20497;-71
2023/10/19 13:23:23;;;;;;;34.85;19.98;;;;;;;;;;4964715;28;20066;-71
2023/10/19 13:28:18;;;;;;;34.95;21.55;;;;;;;;;;4961205;28;20051;-72
2023/10/19 13:30:48;;;;;;;36.78;21.52;;;;;;;;;;4959580;28;20047;-72
2023/10/19 13:33:14;;;;;;;31.05;18.98;;;;;;;;;;4960640;28;20378;-72
2023/10/19 13:35:42;;;;;;;28.40;18.75;;;;;;;;;;4958505;28;20081;-72
2023/10/19 13:38:08;;;;;;;34.72;20.25;;;;;;;;;;4961366;28;20050;-71
2023/10/19 13:40:41;;;;;;;26.77;15.23;;;;;;;;;;4938844;28;20190;-71
2023/10/19 13:43:07;;;;;;;26.63;17.38;;;;;;;;;;4955268;28;20046;-71
2023/10/19 13:45:34;;;;;;;25.40;15.52;;;;;;;;;;4957448;28;20061;-72
2023/10/19 13:48:04;;;;;;;29.50;17.52;;;;;;;;;;4950425;28;20065;-72
2023/10/19 13:50:33;;;;;;;27.80;16.38;;;12.50;99.90;;;;;;4957406;28;20109;-72
2023/10/19 13:53:00;;;;;;;26.50;17.60;;;;;;;;;;4956679;28;20094;-71
2023/10/19 13:55:30;;;;;;;25.08;16.55;;;;;;;;;;4958124;28;20468;-71
2023/10/19 13:57:56;;;;;;;27.50;16.92;;;;;;;;;;4953334;28;20050;-71
2023/10/19 14:00:30;;;;;;;22.50;14.27;;;;;;;;;;4941914;28;20039;-71
2023/10/19 14:02:57;;;;;;;26.20;16.57;;;;;;;;;;4958016;28;20061;-70
2023/10/19 14:05:26;;;;;;;23.33;14.68;;;;;;;;;;4957423;28;20042;-71
2023/10/19 14:07:52;;;;;;;21.60;16.45;;;;;;;;;;4955773;28;20050;-70
2023/10/19 14:10:21;;;;;;;24.80;17.25;;;;;;;;;;4963139;28;20047;-71
2023/10/19 14:12:48;;;;;;;24.65;14.15;;;;;;;;;;4955361;28;20082;-70
2023/10/19 14:15:19;;;;;;;26.15;16.67;;;;;;;;;;4946302;28;20046;-71
2023/10/19 14:17:46;;;;;;;25.20;16.08;;;;;;;;;;4961315;28;20047;-71
2023/10/19 14:20:12;;;;;;;26.90;16.58;;;;;;;;;;4954943;28;20112;-72
2023/10/19 14:22:39;;;;;;;26.58;16.13;;;;;;;;;;4961007;28;20145;-71
2023/10/19 14:25:07;;;;;;;23.88;14.98;;;12.20;99.90;;;;;;4956595;28;20046;-71
2023/10/19 14:27:34;;;;;;;24.35;14.43;;;;;;;;;;4957094;28;20043;-70
2023/10/19 14:30:00;;;;;;;24.48;15.35;;;;;;;;;;4952206;28;20121;-71
2023/10/19 14:32:26;;;;;;;26.67;15.63;;;;;;;;;;4963199;28;20050;-71
2023/10/19 14:34:53;;;;;;;26.05;16.10;;;;;;;;;;4962258;28;20066;-71
2023/10/19 14:37:19;;;;;;;25.38;16.45;;;;;;;;;;4943802;28;20046;-71
2023/10/19 14:39:45;;;;;;;25.17;13.65;;;;;;;;;;4955552;28;20056;-71
2023/10/19 14:42:12;;;;;;;27.38;16.02;;;;;;;;;;4963020;28;20050;-71
2023/10/19 14:44:39;;;;;;;24.55;16.35;;;;;;;;;;4963817;28;20043;-73
2023/10/19 14:47:06;;;;;;;26.08;15.27;;;;;;;;;;4960597;28;20058;-73
2023/10/19 14:49:32;;;;;;;21.70;12.32;;;;;;;;;;4954612;28;20595;-72